createdAt,value
2018-02-25T00:00:27.658Z,100469.84
2018-02-25T00:02:55.155Z,100466.34
2018-02-25T00:05:22.613Z,100465.99
2018-02-25T00:07:50.087Z,100461.24
2018-02-25T00:10:17.576Z,100457.22
2018-02-25T00:12:45.127Z,100469.41
2018-02-25T00:15:12.597Z,100469.11
2018-02-25T00:17:40.100Z,100452.33
2018-02-25T00:20:07.611Z,100452.58
2018-02-25T00:22:35.253Z,100453.89
2018-02-25T00:25:03.109Z,100460.34
2018-02-25T00:27:30.578Z,100457.05
2018-02-25T00:29:58.043Z,100464.73
2018-02-25T00:32:25.519Z,100462.64
2018-02-25T00:34:53.519Z,100464.12
2018-02-25T00:37:20.976Z,100473.37
2018-02-25T00:39:48.446Z,100476.14
2018-02-25T00:42:15.920Z,100464.84
2018-02-25T00:44:43.440Z,100470.20
2018-02-25T00:47:10.972Z,100473.82
2018-02-25T00:49:38.497Z,100467.78
2018-02-25T00:52:06.272Z,100463.34
2018-02-25T00:54:33.748Z,100465.40
2018-02-25T00:57:01.286Z,100469.28
2018-02-25T00:59:28.747Z,100461.52
2018-02-25T01:01:56.225Z,100458.16
2018-02-25T01:04:23.708Z,100470.89
2018-02-25T01:06:51.180Z,100462.77
2018-02-25T01:09:18.683Z,100466.44
2018-02-25T01:11:46.157Z,100466.55
2018-02-25T01:14:13.740Z,100476.16
2018-02-25T01:16:41.470Z,100467.81
2018-02-25T01:19:08.931Z,100465.19
2018-02-25T01:21:36.406Z,100476.95
2018-02-25T01:24:03.862Z,100467.95
2018-02-25T01:26:31.600Z,100468.92
2018-02-25T01:28:59.091Z,100465.75
2018-02-25T01:31:26.552Z,100460.42
2018-02-25T01:33:54.007Z,100462.50
2018-02-25T01:36:21.491Z,100457.06
2018-02-25T01:38:48.991Z,100464.03
2018-02-25T01:41:16.459Z,100464.97
2018-02-25T01:43:43.942Z,100466.59
2018-02-25T01:46:11.409Z,100463.78
2018-02-25T01:48:38.905Z,100464.12
2018-02-25T01:51:06.402Z,100459.45
2018-02-25T01:53:33.860Z,100458.13
2018-02-25T01:56:01.331Z,100451.24
2018-02-25T01:58:28.799Z,100452.09
2018-02-25T02:00:56.262Z,100456.06
2018-02-25T02:03:23.737Z,100452.78
2018-02-25T02:05:51.226Z,100455.23
2018-02-25T02:08:18.697Z,100459.41
2018-02-25T02:10:46.187Z,100453.66
2018-02-25T02:13:13.668Z,100447.79
2018-02-25T02:15:41.151Z,100445.09
2018-02-25T02:18:08.629Z,100451.16
2018-02-25T02:20:36.114Z,100454.39
2018-02-25T02:23:03.595Z,100452.12
2018-02-25T02:25:31.078Z,100453.14
2018-02-25T02:27:58.551Z,100453.74
2018-02-25T02:30:26.180Z,100448.25
2018-02-25T02:32:53.668Z,100453.16
2018-02-25T02:35:21.121Z,100445.67
2018-02-25T02:37:48.596Z,100459.66
2018-02-25T02:40:16.259Z,100445.02
2018-02-25T02:42:43.721Z,100458.63
2018-02-25T02:45:11.176Z,100443.23
2018-02-25T02:47:38.652Z,100434.66
2018-02-25T02:50:06.679Z,100451.05
2018-02-25T02:52:34.176Z,100449.00
2018-02-25T02:55:01.671Z,100466.23
2018-02-25T02:57:29.199Z,100442.11
2018-02-25T02:59:56.647Z,100438.66
2018-02-25T03:02:24.116Z,100468.34
2018-02-25T03:04:51.592Z,100444.37
2018-02-25T03:07:19.048Z,100449.49
2018-02-25T03:09:46.528Z,100437.02
2018-02-25T03:12:14.018Z,100442.84
2018-02-25T03:14:41.471Z,100440.11
2018-02-25T03:17:08.942Z,100456.06
2018-02-25T03:19:36.415Z,100454.95
2018-02-25T03:22:03.946Z,100450.66
2018-02-25T03:24:31.423Z,100462.11
2018-02-25T03:26:58.884Z,100449.17
2018-02-25T03:29:26.368Z,100450.25
2018-02-25T03:31:53.898Z,100449.41
2018-02-25T03:34:21.362Z,100460.39
2018-02-25T03:36:48.839Z,100460.88
2018-02-25T03:39:16.356Z,100453.22
2018-02-25T03:41:43.818Z,100462.91
2018-02-25T03:44:11.297Z,100453.75
2018-02-25T03:46:38.766Z,100447.27
2018-02-25T03:49:06.244Z,100449.69
2018-02-25T03:51:33.755Z,100442.37
2018-02-25T03:54:01.223Z,100451.27
2018-02-25T03:56:28.696Z,100459.78
2018-02-25T03:58:56.180Z,100447.36
2018-02-25T04:01:23.665Z,100455.22
2018-02-25T04:06:24.308Z,100452.39
2018-02-25T04:08:51.787Z,100451.05
2018-02-25T04:11:19.267Z,100450.77
2018-02-25T04:13:46.746Z,100450.15
2018-02-25T04:16:14.306Z,100461.32
2018-02-25T04:18:41.886Z,100461.44
2018-02-25T04:21:09.373Z,100467.52
2018-02-25T04:23:36.845Z,100464.34
2018-02-25T04:26:04.322Z,100467.56
2018-02-25T04:28:31.811Z,100460.02
2018-02-25T04:30:59.315Z,100474.90
2018-02-25T04:33:26.780Z,100466.83
2018-02-25T04:35:54.339Z,100456.08
2018-02-25T04:38:21.822Z,100462.89
2018-02-25T04:40:49.292Z,100471.55
2018-02-25T04:43:16.757Z,100469.31
2018-02-25T04:45:44.281Z,100469.48
2018-02-25T04:48:11.741Z,100471.27
2018-02-25T04:50:39.217Z,100467.41
2018-02-25T04:53:06.711Z,100464.72
2018-02-25T04:55:34.187Z,100471.34
2018-02-25T04:58:01.693Z,100461.44
2018-02-25T05:00:29.253Z,100464.19
2018-02-25T05:02:56.740Z,100465.77
2018-02-25T05:05:24.224Z,100464.63
2018-02-25T05:07:51.738Z,100467.73
2018-02-25T05:10:19.210Z,100469.86
2018-02-25T05:12:46.975Z,100468.12
2018-02-25T05:15:14.568Z,100482.13
2018-02-25T05:17:42.063Z,100474.69
2018-02-25T05:20:09.570Z,100474.53
2018-02-25T05:22:37.040Z,100475.74
2018-02-25T05:25:04.521Z,100477.85
2018-02-25T05:27:32.005Z,100479.05
2018-02-25T05:29:59.491Z,100474.64
2018-02-25T05:32:26.988Z,100465.91
2018-02-25T05:34:54.473Z,100474.82
2018-02-25T05:37:21.948Z,100486.14
2018-02-25T05:39:49.422Z,100485.08
2018-02-25T05:42:16.911Z,100481.36
2018-02-25T05:44:44.371Z,100492.02
2018-02-25T05:47:11.845Z,100489.97
2018-02-25T05:49:39.328Z,100504.41
2018-02-25T05:52:06.841Z,100506.16
2018-02-25T05:54:34.367Z,100515.20
2018-02-25T05:57:02.698Z,100513.12
2018-02-25T05:59:30.672Z,100509.17
2018-02-25T06:02:00.100Z,100519.19
2018-02-25T06:04:27.607Z,100514.03
2018-02-25T06:06:55.087Z,100522.48
2018-02-25T06:09:22.575Z,100525.96
2018-02-25T06:11:50.119Z,100539.90
2018-02-25T06:14:18.216Z,100520.56
2018-02-25T06:16:45.684Z,100528.91
2018-02-25T06:19:13.156Z,100517.28
2018-02-25T06:21:40.637Z,100528.91
2018-02-25T06:24:09.907Z,100529.11
2018-02-25T06:26:38.714Z,100540.10
2018-02-25T06:29:07.428Z,100544.63
2018-02-25T06:31:35.759Z,100540.67
2018-02-25T06:34:04.224Z,100536.65
2018-02-25T06:36:31.707Z,100539.42
2018-02-25T06:38:59.171Z,100539.70
2018-02-25T06:41:26.656Z,100537.69
2018-02-25T06:43:54.149Z,100540.41
2018-02-25T06:46:21.626Z,100541.03
2018-02-25T06:48:49.103Z,100536.23
2018-02-25T06:51:18.093Z,100549.24
2018-02-25T06:53:45.574Z,100549.07
2018-02-25T06:56:13.076Z,100539.45
2018-02-25T06:58:40.535Z,100556.52
2018-02-25T07:01:07.992Z,100563.38
2018-02-25T07:03:35.568Z,100555.14
2018-02-25T07:06:03.045Z,100552.66
2018-02-25T07:08:30.528Z,100549.56
2018-02-25T07:10:58.003Z,100552.67
2018-02-25T07:13:25.491Z,100559.44
2018-02-25T07:15:52.996Z,100553.95
2018-02-25T07:18:20.561Z,100552.25
2018-02-25T07:20:48.073Z,100558.06
2018-02-25T07:23:16.286Z,100560.45
2018-02-25T07:25:43.847Z,100561.59
2018-02-25T07:28:11.325Z,100556.80
2018-02-25T07:30:38.820Z,100554.97
2018-02-25T07:33:06.360Z,100554.11
2018-02-25T07:35:33.801Z,100548.02
2018-02-25T07:38:01.296Z,100556.05
2018-02-25T07:40:28.767Z,100565.05
2018-02-25T07:42:56.241Z,100565.17
2018-02-25T07:45:23.723Z,100541.89
2018-02-25T07:47:51.202Z,100553.99
2018-02-25T07:50:18.740Z,100545.20
2018-02-25T07:52:46.227Z,100537.83
2018-02-25T07:55:13.712Z,100544.99
2018-02-25T07:57:41.199Z,100547.97
2018-02-25T08:00:08.733Z,100553.78
2018-02-25T08:02:36.213Z,100553.98
2018-02-25T08:05:03.736Z,100551.88
2018-02-25T08:07:31.229Z,100549.63
2018-02-25T08:09:58.712Z,100548.80
2018-02-25T08:12:26.339Z,100556.23
2018-02-25T08:14:53.833Z,100546.31
2018-02-25T08:17:21.358Z,100555.75
2018-02-25T08:19:48.867Z,100551.16
2018-02-25T08:22:16.448Z,100546.49
2018-02-25T08:24:44.956Z,100549.20
2018-02-25T08:27:12.451Z,100541.49
2018-02-25T08:29:39.953Z,100544.03
2018-02-25T08:32:07.428Z,100541.38
2018-02-25T08:34:34.901Z,100549.98
2018-02-25T08:37:02.376Z,100556.87
2018-02-25T08:39:29.925Z,100552.63
2018-02-25T08:41:57.421Z,100547.00
2018-02-25T08:44:24.877Z,100540.51
2018-02-25T08:46:52.379Z,100518.24
2018-02-25T08:49:19.851Z,100531.27
2018-02-25T08:51:47.385Z,100521.68
2018-02-25T08:54:14.879Z,100533.17
2018-02-25T08:56:42.344Z,100529.07
2018-02-25T08:59:09.835Z,100534.47
2018-02-25T09:01:37.316Z,100529.18
2018-02-25T09:04:04.806Z,100531.84
2018-02-25T09:06:32.303Z,100541.66
2018-02-25T09:08:59.790Z,100531.25
2018-02-25T09:11:27.261Z,100532.17
2018-02-25T09:13:54.727Z,100531.58
2018-02-25T09:16:22.210Z,100530.59
2018-02-25T09:18:49.686Z,100527.84
2018-02-25T09:21:17.196Z,100538.06
2018-02-25T09:23:44.750Z,100540.45
2018-02-25T09:26:12.278Z,100536.65
2018-02-25T09:28:39.749Z,100532.50
2018-02-25T09:31:07.269Z,100528.44
2018-02-25T09:33:34.814Z,100522.19
2018-02-25T09:36:02.329Z,100518.91
2018-02-25T09:38:30.090Z,100522.24
2018-02-25T09:40:57.580Z,100518.77
2018-02-25T09:43:25.064Z,100520.14
2018-02-25T09:45:53.108Z,100525.13
2018-02-25T09:48:20.576Z,100521.81
2018-02-25T09:50:48.047Z,100524.36
2018-02-25T09:53:15.574Z,100527.84
2018-02-25T09:55:43.044Z,100527.73
2018-02-25T09:58:10.519Z,100516.88
2018-02-25T10:00:38.001Z,100525.70
2018-02-25T10:03:05.491Z,100516.64
2018-02-25T10:05:32.988Z,100520.89
2018-02-25T10:08:00.620Z,100523.09
2018-02-25T10:10:28.282Z,100517.23
2018-02-25T10:12:55.759Z,100518.42
2018-02-25T10:15:23.243Z,100519.75
2018-02-25T10:17:50.784Z,100514.81
2018-02-25T10:20:18.331Z,100504.05
2018-02-25T10:22:45.796Z,100500.73
2018-02-25T10:25:13.284Z,100497.19
2018-02-25T10:27:40.762Z,100496.55
2018-02-25T10:30:08.285Z,100499.87
2018-02-25T10:32:35.780Z,100488.40
2018-02-25T10:35:03.283Z,100483.28
2018-02-25T10:37:30.768Z,100480.96
2018-02-25T10:39:58.256Z,100489.05
2018-02-25T10:42:25.848Z,100482.39
2018-02-25T10:44:53.320Z,100493.34
2018-02-25T10:47:20.806Z,100480.23
2018-02-25T10:49:48.315Z,100474.42
2018-02-25T10:52:15.839Z,100466.47
2018-02-25T10:54:43.401Z,100460.05
2018-02-25T10:57:10.897Z,100476.37
2018-02-25T10:59:38.367Z,100454.65
2018-02-25T11:02:05.840Z,100461.56
2018-02-25T11:04:33.306Z,100454.08
2018-02-25T11:07:00.774Z,100449.36
2018-02-25T11:09:28.267Z,100438.20
2018-02-25T11:11:55.788Z,100453.17
2018-02-25T11:14:23.266Z,100446.60
2018-02-25T11:16:50.783Z,100441.72
2018-02-25T11:19:18.281Z,100438.05
2018-02-25T11:21:45.773Z,100427.42
2018-02-25T11:24:14.358Z,100420.20
2018-02-25T11:26:41.857Z,100424.42
2018-02-25T11:29:09.417Z,100421.64
2018-02-25T11:31:37.001Z,100434.36
2018-02-25T11:34:04.464Z,100412.59
2018-02-25T11:36:31.926Z,100404.89
2018-02-25T11:38:59.405Z,100407.23
2018-02-25T11:41:26.907Z,100408.41
2018-02-25T11:43:54.433Z,100415.98
2018-02-25T11:46:21.933Z,100416.88
2018-02-25T11:48:49.490Z,100410.13
2018-02-25T11:51:17.161Z,100403.59
2018-02-25T11:53:44.659Z,100402.14
2018-02-25T11:56:12.430Z,100405.08
2018-02-25T11:58:40.000Z,100413.59
2018-02-25T12:01:07.520Z,100409.10
2018-02-25T12:03:34.988Z,100399.19
2018-02-25T12:06:02.495Z,100410.93
2018-02-25T12:08:29.981Z,100407.20
2018-02-25T12:10:57.510Z,100398.73
2018-02-25T12:13:25.003Z,100405.03
2018-02-25T12:15:52.451Z,100392.11
2018-02-25T12:18:19.985Z,100382.19
2018-02-25T12:20:47.464Z,100383.28
2018-02-25T12:23:14.990Z,100379.91
2018-02-25T12:25:42.543Z,100381.08
2018-02-25T12:28:10.040Z,100380.03
2018-02-25T12:30:37.499Z,100382.86
2018-02-25T12:33:05.004Z,100371.18
2018-02-25T12:35:32.487Z,100367.88
2018-02-25T12:37:59.975Z,100363.18
2018-02-25T12:40:27.436Z,100363.25
2018-02-25T12:42:54.894Z,100363.67
2018-02-25T12:45:22.445Z,100361.78
2018-02-25T12:47:49.935Z,100367.28
2018-02-25T12:50:17.427Z,100369.43
2018-02-25T12:52:44.928Z,100365.47
2018-02-25T12:55:12.384Z,100365.39
2018-02-25T12:57:39.872Z,100362.59
2018-02-25T13:00:07.327Z,100364.12
2018-02-25T13:02:34.867Z,100355.63
2018-02-25T13:05:02.389Z,100349.63
2018-02-25T13:07:29.889Z,100344.33
2018-02-25T13:09:57.449Z,100361.23
2018-02-25T13:12:25.465Z,100350.37
2018-02-25T13:14:52.964Z,100341.69
2018-02-25T13:17:20.459Z,100344.56
2018-02-25T13:19:47.964Z,100346.06
2018-02-25T13:22:15.648Z,100333.42
2018-02-25T13:24:43.385Z,100345.08
2018-02-25T13:27:10.988Z,100335.23
2018-02-25T13:29:38.463Z,100348.42
2018-02-25T13:32:05.954Z,100344.70
2018-02-25T13:34:33.525Z,100329.09
2018-02-25T13:37:01.064Z,100321.11
2018-02-25T13:39:28.551Z,100323.48
2018-02-25T13:41:56.094Z,100321.28
2018-02-25T13:44:23.684Z,100313.34
2018-02-25T13:46:51.176Z,100328.33
2018-02-25T13:49:18.649Z,100314.92
2018-02-25T13:51:46.492Z,100317.17
2018-02-25T13:54:14.135Z,100322.77
2018-02-25T13:56:41.601Z,100319.91
2018-02-25T13:59:09.085Z,100321.27
2018-02-25T14:01:36.595Z,100315.70
2018-02-25T14:04:04.114Z,100311.73
2018-02-25T14:06:31.597Z,100304.44
2018-02-25T14:08:59.083Z,100316.34
2018-02-25T14:11:26.546Z,100308.14
2018-02-25T14:13:54.067Z,100296.20
2018-02-25T14:16:21.572Z,100300.84
2018-02-25T14:18:49.191Z,100306.73
2018-02-25T14:21:16.683Z,100308.52
2018-02-25T14:23:44.164Z,100296.58
2018-02-25T14:26:11.801Z,100301.30
2018-02-25T14:28:39.359Z,100289.95
2018-02-25T14:31:06.823Z,100299.63
2018-02-25T14:33:34.308Z,100301.95
2018-02-25T14:36:01.792Z,100294.52
2018-02-25T14:38:29.297Z,100282.09
2018-02-25T14:40:56.793Z,100283.47
2018-02-25T14:43:24.352Z,100277.02
2018-02-25T14:45:51.824Z,100284.80
2018-02-25T14:48:19.306Z,100284.91
2018-02-25T14:50:46.799Z,100279.71
2018-02-25T14:53:14.276Z,100284.18
2018-02-25T14:55:41.747Z,100290.76
2018-02-25T14:58:09.212Z,100299.86
2018-02-25T15:00:36.736Z,100288.48
2018-02-25T15:03:04.211Z,100292.41
2018-02-25T15:05:31.765Z,100285.39
2018-02-25T15:07:59.269Z,100283.69
2018-02-25T15:10:26.737Z,100283.73
2018-02-25T15:12:54.206Z,100293.27
2018-02-25T15:15:21.696Z,100285.08
2018-02-25T15:17:49.177Z,100278.16
2018-02-25T15:20:16.750Z,100277.08
2018-02-25T15:22:44.252Z,100280.58
2018-02-25T15:25:11.781Z,100272.05
2018-02-25T15:27:39.300Z,100272.85
2018-02-25T15:30:06.788Z,100278.19
2018-02-25T15:32:34.421Z,100279.75
2018-02-25T15:35:02.945Z,100279.52
2018-02-25T15:37:31.288Z,100279.55
2018-02-25T15:39:58.766Z,100292.91
2018-02-25T15:42:26.321Z,100278.49
2018-02-25T15:44:53.808Z,100280.89
2018-02-25T15:47:21.316Z,100287.54
2018-02-25T15:49:48.787Z,100287.66
2018-02-25T15:52:16.247Z,100285.86
2018-02-25T15:54:44.377Z,100293.22
2018-02-25T15:57:11.951Z,100292.88
2018-02-25T15:59:39.419Z,100290.91
2018-02-25T16:02:06.883Z,100287.64
2018-02-25T16:04:34.765Z,100294.81
2018-02-25T16:07:03.725Z,100302.04
2018-02-25T16:09:31.199Z,100298.13
2018-02-25T16:11:58.849Z,100315.69
2018-02-25T16:14:26.351Z,100308.11
2018-02-25T16:16:53.816Z,100311.24
2018-02-25T16:19:21.332Z,100318.44
2018-02-25T16:21:48.856Z,100316.72
2018-02-25T16:24:16.320Z,100313.58
2018-02-25T16:26:43.811Z,100327.48
2018-02-25T16:29:11.316Z,100324.27
2018-02-25T16:31:38.803Z,100338.09
2018-02-25T16:34:06.628Z,100333.19
2018-02-25T16:36:34.084Z,100345.84
2018-02-25T16:39:01.604Z,100333.00
2018-02-25T16:41:29.500Z,100338.45
2018-02-25T16:43:56.984Z,100335.06
2018-02-25T16:46:24.472Z,100349.52
2018-02-25T16:48:51.964Z,100349.75
2018-02-25T16:51:19.420Z,100339.59
2018-02-25T16:53:46.896Z,100343.66
2018-02-25T16:56:14.527Z,100361.67
2018-02-25T16:58:42.061Z,100360.06
2018-02-25T17:01:09.545Z,100344.91
2018-02-25T17:03:37.002Z,100358.83
2018-02-25T17:06:04.471Z,100351.70
2018-02-25T17:08:32.117Z,100356.00
2018-02-25T17:11:01.017Z,100344.33
2018-02-25T17:13:28.478Z,100360.47
2018-02-25T17:15:56.012Z,100356.10
2018-02-25T17:18:23.722Z,100358.59
2018-02-25T17:20:51.242Z,100358.83
2018-02-25T17:23:24.526Z,100360.95
2018-02-25T17:25:52.024Z,100373.09
2018-02-25T17:28:19.491Z,100360.80
2018-02-25T17:30:46.971Z,100365.34
2018-02-25T17:33:14.697Z,100382.56
2018-02-25T17:35:42.176Z,100366.20
2018-02-25T17:38:09.666Z,100373.53
2018-02-25T17:40:38.081Z,100380.18
2018-02-25T17:43:05.613Z,100394.80
2018-02-25T17:45:33.106Z,100370.38
2018-02-25T17:48:00.592Z,100369.88
2018-02-25T17:50:28.111Z,100378.06
2018-02-25T17:52:55.632Z,100380.39
2018-02-25T17:55:24.520Z,100376.33
2018-02-25T17:57:50.697Z,100380.17
2018-02-25T18:00:18.279Z,100381.63
2018-02-25T18:02:45.819Z,100380.20
2018-02-25T18:05:13.295Z,100379.89
2018-02-25T18:07:40.801Z,100374.49
2018-02-25T18:10:09.793Z,100388.02
2018-02-25T18:12:37.272Z,100384.70
2018-02-25T18:15:04.863Z,100388.19
2018-02-25T18:17:32.342Z,100393.30
2018-02-25T18:19:59.836Z,100386.81
2018-02-25T18:22:27.347Z,100391.98
2018-02-25T18:24:54.991Z,100379.63
2018-02-25T18:29:54.750Z,100391.31
2018-02-25T18:32:22.296Z,100422.53
2018-02-25T18:34:49.801Z,100394.21
2018-02-25T18:37:17.354Z,100395.41
2018-02-25T18:39:45.068Z,100405.55
2018-02-25T18:42:12.584Z,100410.51
2018-02-25T18:44:40.067Z,100406.09
2018-02-25T18:47:07.638Z,100402.64
2018-02-25T18:49:35.140Z,100407.81
2018-02-25T18:52:02.636Z,100416.77
2018-02-25T18:54:30.569Z,100416.70
2018-02-25T18:56:58.222Z,100416.81
2018-02-25T18:59:26.078Z,100428.77
2018-02-25T19:01:54.036Z,100437.92
2018-02-25T19:04:22.952Z,100421.08
2018-02-25T19:06:50.432Z,100427.17
2018-02-25T19:09:17.970Z,100421.08
2018-02-25T19:11:45.467Z,100430.16
2018-02-25T19:14:13.139Z,100428.98
2018-02-25T19:16:40.790Z,100421.09
2018-02-25T19:19:12.293Z,100428.72
2018-02-25T19:21:40.347Z,100411.44
2018-02-25T19:24:07.868Z,100420.69
2018-02-25T19:26:35.858Z,100422.12
2018-02-25T19:29:03.375Z,100418.98
2018-02-25T19:31:30.881Z,100423.66
2018-02-25T19:33:58.400Z,100416.16
2018-02-25T19:36:31.722Z,100426.24
2018-02-25T19:39:04.648Z,100407.49
2018-02-25T19:41:37.888Z,100414.77
2018-02-25T19:44:05.420Z,100424.97
2018-02-25T19:46:33.259Z,100423.33
2018-02-25T19:49:00.767Z,100424.73
2018-02-25T19:51:28.306Z,100420.98
2018-02-25T19:53:55.831Z,100428.52
2018-02-25T19:56:23.345Z,100423.36
2018-02-25T19:58:50.845Z,100424.80
2018-02-25T20:01:19.191Z,100433.00
2018-02-25T20:03:46.728Z,100430.99
2018-02-25T20:06:14.465Z,100419.15
2018-02-25T20:08:41.938Z,100421.45
2018-02-25T20:11:09.434Z,100419.61
2018-02-25T20:13:36.997Z,100413.82
2018-02-25T20:16:04.491Z,100408.60
2018-02-25T20:18:32.010Z,100407.13
2018-02-25T20:20:59.530Z,100413.32
2018-02-25T20:23:27.020Z,100426.14
2018-02-25T20:25:54.519Z,100413.48
2018-02-25T20:28:22.238Z,100412.95
2018-02-25T20:30:49.728Z,100420.37
2018-02-25T20:33:17.288Z,100403.88
2018-02-25T20:35:44.765Z,100410.88
2018-02-25T20:38:12.284Z,100407.52
2018-02-25T20:40:39.763Z,100412.64
2018-02-25T20:43:07.269Z,100411.61
2018-02-25T20:45:36.934Z,100399.72
2018-02-25T20:48:04.429Z,100404.88
2018-02-25T20:50:32.318Z,100405.88
2018-02-25T20:52:59.834Z,100411.91
2018-02-25T20:55:27.426Z,100397.48
2018-02-25T20:57:54.982Z,100390.05
2018-02-25T21:00:23.208Z,100383.99
2018-02-25T21:02:50.716Z,100386.50
2018-02-25T21:05:18.204Z,100382.05
2018-02-25T21:07:45.676Z,100381.28
2018-02-25T21:10:13.265Z,100371.24
2018-02-25T21:12:40.813Z,100381.92
2018-02-25T21:15:08.930Z,100375.66
2018-02-25T21:17:36.442Z,100371.41
2018-02-25T21:22:36.494Z,100376.22
2018-02-25T21:25:04.020Z,100373.58
2018-02-25T21:27:31.508Z,100370.57
2018-02-25T21:29:59.580Z,100374.48
2018-02-25T21:32:27.062Z,100381.31
2018-02-25T21:34:55.512Z,100374.05
2018-02-25T21:37:23.003Z,100362.41
2018-02-25T21:39:50.495Z,100371.47
2018-02-25T21:42:17.970Z,100374.31
2018-02-25T21:44:45.443Z,100367.66
2018-02-25T21:47:12.901Z,100370.33
2018-02-25T21:49:40.427Z,100355.67
2018-02-25T21:52:07.916Z,100365.58
2018-02-25T21:54:40.928Z,100357.21
2018-02-25T21:57:15.683Z,100361.67
2018-02-25T21:59:48.707Z,100357.67
2018-02-25T22:02:21.801Z,100362.93
2018-02-25T22:04:49.279Z,100362.73
2018-02-25T22:07:16.769Z,100361.69
2018-02-25T22:09:44.264Z,100358.98
2018-02-25T22:12:12.820Z,100353.36
2018-02-25T22:14:40.315Z,100365.45
2018-02-25T22:17:07.812Z,100350.25
2018-02-25T22:19:35.383Z,100354.77
2018-02-25T22:24:36.576Z,100349.78
2018-02-25T22:27:04.135Z,100348.98
2018-02-25T22:29:31.616Z,100345.77
2018-02-25T22:31:59.155Z,100343.86
2018-02-25T22:34:28.024Z,100348.77
2018-02-25T22:36:55.510Z,100349.71
2018-02-25T22:39:22.998Z,100340.31
2018-02-25T22:41:50.501Z,100346.60
2018-02-25T22:44:18.847Z,100352.75
2018-02-25T22:46:46.387Z,100341.70
2018-02-25T22:49:13.894Z,100340.55
2018-02-25T22:51:41.482Z,100340.51
2018-02-25T22:54:09.033Z,100351.84
2018-02-25T22:56:36.508Z,100343.33
2018-02-25T22:59:03.996Z,100346.97
2018-02-25T23:01:31.482Z,100346.22
2018-02-25T23:03:58.945Z,100346.63
2018-02-25T23:06:27.116Z,100347.49
2018-02-25T23:08:54.718Z,100348.03
2018-02-25T23:11:22.279Z,100350.41
2018-02-25T23:13:49.842Z,100346.87
2018-02-25T23:16:17.300Z,100340.73
2018-02-25T23:18:44.930Z,100345.39
2018-02-25T23:21:12.414Z,100334.81
2018-02-25T23:23:39.904Z,100340.38
2018-02-25T23:26:07.466Z,100332.05
2018-02-25T23:28:35.057Z,100339.27
2018-02-25T23:31:02.516Z,100341.70
2018-02-25T23:33:30.002Z,100330.44
2018-02-25T23:35:57.477Z,100335.63
2018-02-25T23:38:24.984Z,100342.95
2018-02-25T23:40:52.491Z,100331.98
2018-02-25T23:43:19.983Z,100329.37
2018-02-25T23:45:47.537Z,100329.70
2018-02-25T23:48:15.042Z,100323.84
2018-02-25T23:50:42.536Z,100328.70
2018-02-25T23:53:10.009Z,100335.38
2018-02-25T23:55:37.523Z,100322.54
2018-02-25T23:58:05.014Z,100321.17
